sensor_id;sensor_type;location;lat;lon;timestamp;temperature;humidity
34492;DHT22;20737;49.908;8.126;2023-03-21T00:01:06;9.20;99.90
34492;DHT22;20737;49.908;8.126;2023-03-21T00:03:33;9.20;99.90
34492;DHT22;20737;49.908;8.126;2023-03-21T00:06:04;9.20;99.90
34492;DHT22;20737;49.908;8.126;2023-03-21T00:08:33;9.10;99.90
34492;DHT22;20737;49.908;8.126;2023-03-21T00:11:02;9.10;99.90
34492;DHT22;20737;49.908;8.126;2023-03-21T00:13:29;9.10;99.90
34492;DHT22;20737;49.908;8.126;2023-03-21T00:16:02;9.10;99.90
34492;DHT22;20737;49.908;8.126;2023-03-21T00:18:29;9.00;99.90
34492;DHT22;20737;49.908;8.126;2023-03-21T00:20:56;9.00;99.90
34492;DHT22;20737;49.908;8.126;2023-03-21T00:23:24;8.90;99.90
34492;DHT22;20737;49.908;8.126;2023-03-21T00:25:52;8.90;99.90
34492;DHT22;20737;49.908;8.126;2023-03-21T00:28:20;8.90;99.90
34492;DHT22;20737;49.908;8.126;2023-03-21T00:30:47;8.90;99.90
34492;DHT22;20737;49.908;8.126;2023-03-21T00:33:14;8.90;99.90
34492;DHT22;20737;49.908;8.126;2023-03-21T00:35:41;8.90;99.90
34492;DHT22;20737;49.908;8.126;2023-03-21T00:38:09;8.90;99.90
34492;DHT22;20737;49.908;8.126;2023-03-21T00:40:36;8.90;99.90
34492;DHT22;20737;49.908;8.126;2023-03-21T00:43:04;8.90;99.90
34492;DHT22;20737;49.908;8.126;2023-03-21T00:45:31;8.90;99.90
34492;DHT22;20737;49.908;8.126;2023-03-21T00:47:59;8.90;99.90
34492;DHT22;20737;49.908;8.126;2023-03-21T00:50:26;8.80;99.90
34492;DHT22;20737;49.908;8.126;2023-03-21T00:52:53;8.90;99.90
34492;DHT22;20737;49.908;8.126;2023-03-21T00:55:20;8.90;99.90
34492;DHT22;20737;49.908;8.126;2023-03-21T00:57:47;8.90;99.90
34492;DHT22;20737;49.908;8.126;2023-03-21T01:00:16;8.90;99.90
34492;DHT22;20737;49.908;8.126;2023-03-21T01:02:43;8.80;99.90
34492;DHT22;20737;49.908;8.126;2023-03-21T01:05:21;8.90;99.90
34492;DHT22;20737;49.908;8.126;2023-03-21T01:08:08;8.80;99.90
34492;DHT22;20737;49.908;8.126;2023-03-21T01:10:37;8.90;99.90
34492;DHT22;20737;49.908;8.126;2023-03-21T01:13:04;8.80;99.90
34492;DHT22;20737;49.908;8.126;2023-03-21T01:15:32;8.90;99.90
34492;DHT22;20737;49.908;8.126;2023-03-21T01:17:59;8.80;99.90
34492;DHT22;20737;49.908;8.126;2023-03-21T01:20:26;8.80;99.90
34492;DHT22;20737;49.908;8.126;2023-03-21T01:22:53;8.80;99.90
34492;DHT22;20737;49.908;8.126;2023-03-21T01:25:23;8.90;99.90
34492;DHT22;20737;49.908;8.126;2023-03-21T01:27:49;8.90;99.90
34492;DHT22;20737;49.908;8.126;2023-03-21T01:30:17;8.90;99.90
34492;DHT22;20737;49.908;8.126;2023-03-21T01:32:45;8.90;99.90
34492;DHT22;20737;49.908;8.126;2023-03-21T01:35:12;8.90;99.90
34492;DHT22;20737;49.908;8.126;2023-03-21T01:37:38;8.90;99.90
34492;DHT22;20737;49.908;8.126;2023-03-21T01:40:06;8.90;99.90
34492;DHT22;20737;49.908;8.126;2023-03-21T01:42:37;8.90;99.90
34492;DHT22;20737;49.908;8.126;2023-03-21T01:45:57;8.90;99.90
34492;DHT22;20737;49.908;8.126;2023-03-21T01:47:54;8.90;99.90
34492;DHT22;20737;49.908;8.126;2023-03-21T01:50:21;8.80;99.90
34492;DHT22;20737;49.908;8.126;2023-03-21T01:52:48;8.80;99.90
34492;DHT22;20737;49.908;8.126;2023-03-21T01:55:16;8.80;99.90
34492;DHT22;20737;49.908;8.126;2023-03-21T01:57:46;8.80;99.90
34492;DHT22;20737;49.908;8.126;2023-03-21T02:00:17;8.70;99.90
34492;DHT22;20737;49.908;8.126;2023-03-21T02:02:46;8.80;99.90
34492;DHT22;20737;49.908;8.126;2023-03-21T02:05:21;8.80;99.90
34492;DHT22;20737;49.908;8.126;2023-03-21T02:07:51;8.70;99.90
34492;DHT22;20737;49.908;8.126;2023-03-21T02:10:18;8.60;99.90
34492;DHT22;20737;49.908;8.126;2023-03-21T02:12:45;8.70;99.90
34492;DHT22;20737;49.908;8.126;2023-03-21T02:15:12;8.60;99.90
34492;DHT22;20737;49.908;8.126;2023-03-21T02:17:43;8.60;99.90
34492;DHT22;20737;49.908;8.126;2023-03-21T02:20:36;8.60;99.90
34492;DHT22;20737;49.908;8.126;2023-03-21T02:23:35;8.60;99.90
34492;DHT22;20737;49.908;8.126;2023-03-21T02:26:25;8.60;99.90
34492;DHT22;20737;49.908;8.126;2023-03-21T02:28:59;8.60;99.90
34492;DHT22;20737;49.908;8.126;2023-03-21T02:31:36;8.60;99.90
34492;DHT22;20737;49.908;8.126;2023-03-21T02:37:12;8.50;99.90
34492;DHT22;20737;49.908;8.126;2023-03-21T02:39:55;8.50;99.90
34492;DHT22;20737;49.908;8.126;2023-03-21T02:42:28;8.50;99.90
34492;DHT22;20737;49.908;8.126;2023-03-21T02:45:00;8.50;99.90
34492;DHT22;20737;49.908;8.126;2023-03-21T02:47:30;8.50;99.90
34492;DHT22;20737;49.908;8.126;2023-03-21T02:50:04;8.50;99.90
34492;DHT22;20737;49.908;8.126;2023-03-21T02:52:36;8.50;99.90
34492;DHT22;20737;49.908;8.126;2023-03-21T02:55:05;8.50;99.90
34492;DHT22;20737;49.908;8.126;2023-03-21T02:57:39;8.50;99.90
34492;DHT22;20737;49.908;8.126;2023-03-21T03:00:07;8.50;99.90
34492;DHT22;20737;49.908;8.126;2023-03-21T03:02:37;8.50;99.90
34492;DHT22;20737;49.908;8.126;2023-03-21T03:05:13;8.50;99.90
34492;DHT22;20737;49.908;8.126;2023-03-21T03:07:55;8.60;99.90
34492;DHT22;20737;49.908;8.126;2023-03-21T03:10:34;8.60;99.90
34492;DHT22;20737;49.908;8.126;2023-03-21T03:13:14;8.70;99.90
34492;DHT22;20737;49.908;8.126;2023-03-21T03:15:51;8.60;99.90
34492;DHT22;20737;49.908;8.126;2023-03-21T03:18:24;8.60;99.90
34492;DHT22;20737;49.908;8.126;2023-03-21T03:20:56;8.70;99.90
34492;DHT22;20737;49.908;8.126;2023-03-21T03:23:33;8.70;99.90
34492;DHT22;20737;49.908;8.126;2023-03-21T03:26:03;8.70;99.90
34492;DHT22;20737;49.908;8.126;2023-03-21T03:28:36;8.70;99.90
34492;DHT22;20737;49.908;8.126;2023-03-21T03:31:04;8.70;99.90
34492;DHT22;20737;49.908;8.126;2023-03-21T03:33:34;8.70;99.90
34492;DHT22;20737;49.908;8.126;2023-03-21T03:36:03;8.70;99.90
34492;DHT22;20737;49.908;8.126;2023-03-21T03:38:33;8.70;99.90
34492;DHT22;20737;49.908;8.126;2023-03-21T03:41:05;8.70;99.90
34492;DHT22;20737;49.908;8.126;2023-03-21T03:43:39;8.70;99.90
34492;DHT22;20737;49.908;8.126;2023-03-21T03:46:11;8.70;99.90
34492;DHT22;20737;49.908;8.126;2023-03-21T03:48:43;8.70;99.90
34492;DHT22;20737;49.908;8.126;2023-03-21T03:51:16;8.70;99.90
34492;DHT22;20737;49.908;8.126;2023-03-21T03:53:48;8.80;99.90
34492;DHT22;20737;49.908;8.126;2023-03-21T03:56:17;8.70;99.90
34492;DHT22;20737;49.908;8.126;2023-03-21T03:58:43;8.70;99.90
34492;DHT22;20737;49.908;8.126;2023-03-21T04:01:10;8.80;99.90
34492;DHT22;20737;49.908;8.126;2023-03-21T04:03:39;8.80;99.90
34492;DHT22;20737;49.908;8.126;2023-03-21T04:06:07;8.80;99.90
34492;DHT22;20737;49.908;8.126;2023-03-21T04:08:34;8.80;99.90
34492;DHT22;20737;49.908;8.126;2023-03-21T04:11:03;8.80;99.90
34492;DHT22;20737;49.908;8.126;2023-03-21T04:13:30;8.80;99.90
34492;DHT22;20737;49.908;8.126;2023-03-21T04:15:57;8.80;99.90
34492;DHT22;20737;49.908;8.126;2023-03-21T04:18:24;8.80;99.90
34492;DHT22;20737;49.908;8.126;2023-03-21T04:20:52;8.70;99.90
34492;DHT22;20737;49.908;8.126;2023-03-21T04:23:19;8.70;99.90
34492;DHT22;20737;49.908;8.126;2023-03-21T04:25:46;8.80;99.90
34492;DHT22;20737;49.908;8.126;2023-03-21T04:28:14;8.80;99.90
34492;DHT22;20737;49.908;8.126;2023-03-21T04:30:41;8.80;99.90
34492;DHT22;20737;49.908;8.126;2023-03-21T04:33:07;8.80;99.90
34492;DHT22;20737;49.908;8.126;2023-03-21T04:35:34;8.80;99.90
34492;DHT22;20737;49.908;8.126;2023-03-21T04:38:02;8.80;99.90
34492;DHT22;20737;49.908;8.126;2023-03-21T04:40:29;8.80;99.90
34492;DHT22;20737;49.908;8.126;2023-03-21T04:42:56;8.80;99.90
34492;DHT22;20737;49.908;8.126;2023-03-21T04:45:29;8.80;99.90
34492;DHT22;20737;49.908;8.126;2023-03-21T04:47:56;8.80;99.90
34492;DHT22;20737;49.908;8.126;2023-03-21T04:50:23;8.80;99.90
34492;DHT22;20737;49.908;8.126;2023-03-21T04:52:50;8.80;99.90
34492;DHT22;20737;49.908;8.126;2023-03-21T04:55:16;8.80;99.90
34492;DHT22;20737;49.908;8.126;2023-03-21T04:57:46;8.80;99.90
34492;DHT22;20737;49.908;8.126;2023-03-21T05:00:13;8.80;99.90
34492;DHT22;20737;49.908;8.126;2023-03-21T05:02:42;8.80;99.90
34492;DHT22;20737;49.908;8.126;2023-03-21T05:05:09;8.80;99.90
34492;DHT22;20737;49.908;8.126;2023-03-21T05:07:37;8.80;99.90
34492;DHT22;20737;49.908;8.126;2023-03-21T05:10:05;8.80;99.90
34492;DHT22;20737;49.908;8.126;2023-03-21T05:12:32;8.80;99.90
34492;DHT22;20737;49.908;8.126;2023-03-21T05:14:59;8.80;99.90
34492;DHT22;20737;49.908;8.126;2023-03-21T05:17:26;8.80;99.90
34492;DHT22;20737;49.908;8.126;2023-03-21T05:19:54;8.80;99.90
34492;DHT22;20737;49.908;8.126;2023-03-21T05:22:22;8.80;99.90
34492;DHT22;20737;49.908;8.126;2023-03-21T05:24:51;8.80;99.90
34492;DHT22;20737;49.908;8.126;2023-03-21T05:27:20;8.80;99.90
34492;DHT22;20737;49.908;8.126;2023-03-21T05:30:01;8.80;99.90
34492;DHT22;20737;49.908;8.126;2023-03-21T05:32:27;8.80;99.90
34492;DHT22;20737;49.908;8.126;2023-03-21T05:34:56;8.80;99.90
34492;DHT22;20737;49.908;8.126;2023-03-21T05:37:22;8.80;99.90
34492;DHT22;20737;49.908;8.126;2023-03-21T05:39:49;8.90;99.90
34492;DHT22;20737;49.908;8.126;2023-03-21T05:42:16;9.00;99.90
34492;DHT22;20737;49.908;8.126;2023-03-21T05:44:44;9.00;99.90
34492;DHT22;20737;49.908;8.126;2023-03-21T05:47:10;9.10;99.90
34492;DHT22;20737;49.908;8.126;2023-03-21T05:49:37;9.10;99.90
34492;DHT22;20737;49.908;8.126;2023-03-21T05:52:06;9.20;99.90
34492;DHT22;20737;49.908;8.126;2023-03-21T05:54:33;9.20;99.90
34492;DHT22;20737;49.908;8.126;2023-03-21T05:56:59;9.20;99.90
34492;DHT22;20737;49.908;8.126;2023-03-21T05:59:26;9.30;99.90
34492;DHT22;20737;49.908;8.126;2023-03-21T06:01:53;9.40;99.90
34492;DHT22;20737;49.908;8.126;2023-03-21T06:04:20;9.40;99.90
34492;DHT22;20737;49.908;8.126;2023-03-21T06:06:46;9.40;99.90
34492;DHT22;20737;49.908;8.126;2023-03-21T06:09:14;9.40;99.90
34492;DHT22;20737;49.908;8.126;2023-03-21T06:11:45;9.30;99.90
34492;DHT22;20737;49.908;8.126;2023-03-21T06:14:12;9.30;99.90
34492;DHT22;20737;49.908;8.126;2023-03-21T06:16:39;9.30;99.90
34492;DHT22;20737;49.908;8.126;2023-03-21T06:19:07;9.40;99.90
34492;DHT22;20737;49.908;8.126;2023-03-21T06:21:33;9.40;99.90
34492;DHT22;20737;49.908;8.126;2023-03-21T06:24:00;9.50;99.90
34492;DHT22;20737;49.908;8.126;2023-03-21T06:26:29;9.60;99.90
34492;DHT22;20737;49.908;8.126;2023-03-21T06:28:56;9.60;99.90
34492;DHT22;20737;49.908;8.126;2023-03-21T06:31:22;9.70;99.90
34492;DHT22;20737;49.908;8.126;2023-03-21T06:33:51;9.70;99.90
34492;DHT22;20737;49.908;8.126;2023-03-21T06:36:18;9.80;99.90
34492;DHT22;20737;49.908;8.126;2023-03-21T06:38:45;10.00;99.90
34492;DHT22;20737;49.908;8.126;2023-03-21T06:41:14;10.10;99.90
34492;DHT22;20737;49.908;8.126;2023-03-21T06:43:42;10.20;99.90
34492;DHT22;20737;49.908;8.126;2023-03-21T06:46:09;10.20;99.90
34492;DHT22;20737;49.908;8.126;2023-03-21T06:48:37;10.30;99.90
34492;DHT22;20737;49.908;8.126;2023-03-21T06:51:09;10.40;99.90
34492;DHT22;20737;49.908;8.126;2023-03-21T06:53:36;10.30;99.90
34492;DHT22;20737;49.908;8.126;2023-03-21T06:56:03;10.40;99.90
34492;DHT22;20737;49.908;8.126;2023-03-21T06:58:30;10.30;99.90
34492;DHT22;20737;49.908;8.126;2023-03-21T07:00:59;10.40;99.90
34492;DHT22;20737;49.908;8.126;2023-03-21T07:03:26;10.40;99.90
34492;DHT22;20737;49.908;8.126;2023-03-21T07:05:53;10.50;99.90
34492;DHT22;20737;49.908;8.126;2023-03-21T07:08:20;10.60;99.90
34492;DHT22;20737;49.908;8.126;2023-03-21T07:10:47;10.60;99.90
34492;DHT22;20737;49.908;8.126;2023-03-21T07:13:14;10.80;99.90
34492;DHT22;20737;49.908;8.126;2023-03-21T07:15:42;11.00;99.90
34492;DHT22;20737;49.908;8.126;2023-03-21T07:18:10;11.10;99.90
34492;DHT22;20737;49.908;8.126;2023-03-21T07:20:36;11.40;99.90
34492;DHT22;20737;49.908;8.126;2023-03-21T07:23:03;11.60;99.90
34492;DHT22;20737;49.908;8.126;2023-03-21T07:25:30;12.00;99.90
34492;DHT22;20737;49.908;8.126;2023-03-21T07:27:57;12.40;99.90
34492;DHT22;20737;49.908;8.126;2023-03-21T07:30:24;13.00;99.90
34492;DHT22;20737;49.908;8.126;2023-03-21T07:32:51;13.50;99.90
34492;DHT22;20737;49.908;8.126;2023-03-21T07:35:20;13.80;99.90
34492;DHT22;20737;49.908;8.126;2023-03-21T07:37:47;13.80;99.90
34492;DHT22;20737;49.908;8.126;2023-03-21T07:40:14;13.60;99.90
34492;DHT22;20737;49.908;8.126;2023-03-21T07:42:41;13.50;99.90
34492;DHT22;20737;49.908;8.126;2023-03-21T07:45:09;13.60;99.90
34492;DHT22;20737;49.908;8.126;2023-03-21T07:47:37;13.50;99.90
34492;DHT22;20737;49.908;8.126;2023-03-21T07:50:04;13.40;99.90
34492;DHT22;20737;49.908;8.126;2023-03-21T07:52:32;13.50;99.90
34492;DHT22;20737;49.908;8.126;2023-03-21T07:54:59;13.30;99.90
34492;DHT22;20737;49.908;8.126;2023-03-21T07:57:26;13.40;99.90
34492;DHT22;20737;49.908;8.126;2023-03-21T07:59:52;13.20;99.90
34492;DHT22;20737;49.908;8.126;2023-03-21T08:02:19;13.20;99.90
34492;DHT22;20737;49.908;8.126;2023-03-21T08:04:46;13.20;99.90
34492;DHT22;20737;49.908;8.126;2023-03-21T08:07:13;13.10;99.90
34492;DHT22;20737;49.908;8.126;2023-03-21T08:09:41;13.10;99.90
34492;DHT22;20737;49.908;8.126;2023-03-21T08:12:08;13.20;99.90
34492;DHT22;20737;49.908;8.126;2023-03-21T08:14:36;13.30;99.90
34492;DHT22;20737;49.908;8.126;2023-03-21T08:17:03;13.40;99.90
34492;DHT22;20737;49.908;8.126;2023-03-21T08:19:30;13.60;99.90
34492;DHT22;20737;49.908;8.126;2023-03-21T08:21:57;13.70;99.90
34492;DHT22;20737;49.908;8.126;2023-03-21T08:24:24;13.80;99.90
34492;DHT22;20737;49.908;8.126;2023-03-21T08:26:52;13.50;99.90
34492;DHT22;20737;49.908;8.126;2023-03-21T08:29:19;13.20;99.90
34492;DHT22;20737;49.908;8.126;2023-03-21T08:31:47;13.00;99.90
34492;DHT22;20737;49.908;8.126;2023-03-21T08:34:14;12.70;99.90
34492;DHT22;20737;49.908;8.126;2023-03-21T08:36:42;12.60;99.90
34492;DHT22;20737;49.908;8.126;2023-03-21T08:39:09;12.50;99.90
34492;DHT22;20737;49.908;8.126;2023-03-21T08:41:37;12.40;99.90
34492;DHT22;20737;49.908;8.126;2023-03-21T08:44:05;12.50;99.90
34492;DHT22;20737;49.908;8.126;2023-03-21T08:46:32;12.50;99.90
34492;DHT22;20737;49.908;8.126;2023-03-21T08:48:59;12.30;99.90
34492;DHT22;20737;49.908;8.126;2023-03-21T08:51:26;12.30;99.90
34492;DHT22;20737;49.908;8.126;2023-03-21T08:53:52;12.30;99.90
34492;DHT22;20737;49.908;8.126;2023-03-21T08:56:19;12.20;99.90
34492;DHT22;20737;49.908;8.126;2023-03-21T08:58:46;12.30;99.90
34492;DHT22;20737;49.908;8.126;2023-03-21T09:01:15;12.40;99.90
34492;DHT22;20737;49.908;8.126;2023-03-21T09:03:42;12.40;99.90
34492;DHT22;20737;49.908;8.126;2023-03-21T09:06:09;12.40;99.90
34492;DHT22;20737;49.908;8.126;2023-03-21T09:08:39;12.30;99.90
34492;DHT22;20737;49.908;8.126;2023-03-21T09:11:06;12.40;99.90
34492;DHT22;20737;49.908;8.126;2023-03-21T09:13:33;12.40;99.90
34492;DHT22;20737;49.908;8.126;2023-03-21T09:16:00;12.40;99.90
34492;DHT22;20737;49.908;8.126;2023-03-21T09:18:28;12.50;99.90
34492;DHT22;20737;49.908;8.126;2023-03-21T09:21:09;12.50;99.90
34492;DHT22;20737;49.908;8.126;2023-03-21T09:23:37;12.60;99.90
34492;DHT22;20737;49.908;8.126;2023-03-21T09:26:04;12.80;99.90
34492;DHT22;20737;49.908;8.126;2023-03-21T09:28:31;12.90;99.90
34492;DHT22;20737;49.908;8.126;2023-03-21T09:30:59;12.90;99.90
34492;DHT22;20737;49.908;8.126;2023-03-21T09:33:28;12.90;99.90
34492;DHT22;20737;49.908;8.126;2023-03-21T09:35:55;13.00;99.90
34492;DHT22;20737;49.908;8.126;2023-03-21T09:38:24;13.10;99.90
34492;DHT22;20737;49.908;8.126;2023-03-21T09:41:03;13.10;99.90
34492;DHT22;20737;49.908;8.126;2023-03-21T09:43:41;13.00;99.90
34492;DHT22;20737;49.908;8.126;2023-03-21T09:46:18;13.10;99.90
34492;DHT22;20737;49.908;8.126;2023-03-21T09:48:52;12.70;99.90
34492;DHT22;20737;49.908;8.126;2023-03-21T09:51:25;12.70;99.90
34492;DHT22;20737;49.908;8.126;2023-03-21T09:53:54;12.60;99.90
34492;DHT22;20737;49.908;8.126;2023-03-21T09:56:23;12.60;99.90
34492;DHT22;20737;49.908;8.126;2023-03-21T09:58:52;12.60;99.90
34492;DHT22;20737;49.908;8.126;2023-03-21T10:01:23;12.60;99.90
34492;DHT22;20737;49.908;8.126;2023-03-21T10:03:55;12.80;99.90
34492;DHT22;20737;49.908;8.126;2023-03-21T10:06:25;12.90;99.90
34492;DHT22;20737;49.908;8.126;2023-03-21T10:08:57;12.80;99.90
34492;DHT22;20737;49.908;8.126;2023-03-21T10:11:27;12.90;99.90
34492;DHT22;20737;49.908;8.126;2023-03-21T10:13:57;13.00;99.90
34492;DHT22;20737;49.908;8.126;2023-03-21T10:16:27;13.10;99.90
34492;DHT22;20737;49.908;8.126;2023-03-21T10:18:58;13.00;99.90
34492;DHT22;20737;49.908;8.126;2023-03-21T10:21:27;13.10;99.90
34492;DHT22;20737;49.908;8.126;2023-03-21T10:23:56;13.00;99.90
34492;DHT22;20737;49.908;8.126;2023-03-21T10:26:26;13.10;99.90
34492;DHT22;20737;49.908;8.126;2023-03-21T10:28:57;13.00;99.90
34492;DHT22;20737;49.908;8.126;2023-03-21T10:31:25;12.80;99.90
34492;DHT22;20737;49.908;8.126;2023-03-21T10:33:59;12.70;99.90
34492;DHT22;20737;49.908;8.126;2023-03-21T10:36:29;12.70;99.90
34492;DHT22;20737;49.908;8.126;2023-03-21T10:39:00;12.80;99.90
34492;DHT22;20737;49.908;8.126;2023-03-21T10:41:28;12.80;99.90
34492;DHT22;20737;49.908;8.126;2023-03-21T10:44:07;12.70;99.90
34492;DHT22;20737;49.908;8.126;2023-03-21T10:46:35;12.70;99.90
34492;DHT22;20737;49.908;8.126;2023-03-21T10:49:06;12.60;99.90
34492;DHT22;20737;49.908;8.126;2023-03-21T10:51:35;12.60;99.90
34492;DHT22;20737;49.908;8.126;2023-03-21T10:54:05;12.70;99.90
34492;DHT22;20737;49.908;8.126;2023-03-21T10:56:36;12.80;99.90
34492;DHT22;20737;49.908;8.126;2023-03-21T10:59:05;12.80;99.90
34492;DHT22;20737;49.908;8.126;2023-03-21T11:01:36;12.90;99.90
34492;DHT22;20737;49.908;8.126;2023-03-21T11:04:09;12.90;99.90
34492;DHT22;20737;49.908;8.126;2023-03-21T11:06:41;12.90;99.90
34492;DHT22;20737;49.908;8.126;2023-03-21T11:09:13;13.00;99.90
34492;DHT22;20737;49.908;8.126;2023-03-21T11:11:48;13.10;99.90
34492;DHT22;20737;49.908;8.126;2023-03-21T11:14:32;13.10;99.90
34492;DHT22;20737;49.908;8.126;2023-03-21T11:17:01;13.40;99.90
34492;DHT22;20737;49.908;8.126;2023-03-21T11:19:35;13.30;99.90
34492;DHT22;20737;49.908;8.126;2023-03-21T11:22:05;13.40;99.90
34492;DHT22;20737;49.908;8.126;2023-03-21T11:24:32;13.40;99.90
34492;DHT22;20737;49.908;8.126;2023-03-21T11:27:05;13.40;99.90
34492;DHT22;20737;49.908;8.126;2023-03-21T11:29:33;13.40;99.90
34492;DHT22;20737;49.908;8.126;2023-03-21T11:32:10;13.70;99.90
34492;DHT22;20737;49.908;8.126;2023-03-21T11:34:44;13.50;99.90
34492;DHT22;20737;49.908;8.126;2023-03-21T11:37:18;13.70;99.90
34492;DHT22;20737;49.908;8.126;2023-03-21T11:39:46;13.60;99.90
34492;DHT22;20737;49.908;8.126;2023-03-21T11:42:26;13.50;99.90
34492;DHT22;20737;49.908;8.126;2023-03-21T11:45:01;13.40;99.90
34492;DHT22;20737;49.908;8.126;2023-03-21T11:47:28;13.40;99.90
34492;DHT22;20737;49.908;8.126;2023-03-21T11:49:57;13.30;99.90
34492;DHT22;20737;49.908;8.126;2023-03-21T11:52:30;13.30;99.90
34492;DHT22;20737;49.908;8.126;2023-03-21T11:58:03;13.40;99.90
34492;DHT22;20737;49.908;8.126;2023-03-21T12:00:38;13.30;99.90
34492;DHT22;20737;49.908;8.126;2023-03-21T12:06:16;13.30;99.90
34492;DHT22;20737;49.908;8.126;2023-03-21T12:08:51;13.40;99.90
34492;DHT22;20737;49.908;8.126;2023-03-21T12:11:27;13.50;99.90
34492;DHT22;20737;49.908;8.126;2023-03-21T12:14:02;13.40;99.90
34492;DHT22;20737;49.908;8.126;2023-03-21T12:16:43;13.40;99.90
34492;DHT22;20737;49.908;8.126;2023-03-21T12:19:33;13.40;99.90
34492;DHT22;20737;49.908;8.126;2023-03-21T12:22:09;13.70;99.90
34492;DHT22;20737;49.908;8.126;2023-03-21T12:24:41;13.80;99.90
34492;DHT22;20737;49.908;8.126;2023-03-21T12:27:16;13.90;99.90
34492;DHT22;20737;49.908;8.126;2023-03-21T12:29:52;14.00;99.90
34492;DHT22;20737;49.908;8.126;2023-03-21T12:32:31;14.00;99.90
34492;DHT22;20737;49.908;8.126;2023-03-21T12:35:11;13.90;99.90
34492;DHT22;20737;49.908;8.126;2023-03-21T12:37:50;14.00;99.90
34492;DHT22;20737;49.908;8.126;2023-03-21T12:40:30;13.80;99.90
34492;DHT22;20737;49.908;8.126;2023-03-21T12:43:15;13.70;99.90
34492;DHT22;20737;49.908;8.126;2023-03-21T12:45:49;13.50;99.90
34492;DHT22;20737;49.908;8.126;2023-03-21T12:48:23;13.40;99.90
34492;DHT22;20737;49.908;8.126;2023-03-21T12:50:54;13.30;99.90
34492;DHT22;20737;49.908;8.126;2023-03-21T12:53:33;13.30;99.90
34492;DHT22;20737;49.908;8.126;2023-03-21T12:56:05;13.20;99.90
34492;DHT22;20737;49.908;8.126;2023-03-21T12:58:42;13.30;99.90
34492;DHT22;20737;49.908;8.126;2023-03-21T13:01:11;13.30;99.90
34492;DHT22;20737;49.908;8.126;2023-03-21T13:03:40;13.40;99.90
34492;DHT22;20737;49.908;8.126;2023-03-21T13:06:09;13.30;99.90
34492;DHT22;20737;49.908;8.126;2023-03-21T13:08:42;13.20;99.90
34492;DHT22;20737;49.908;8.126;2023-03-21T13:11:14;13.50;99.90
34492;DHT22;20737;49.908;8.126;2023-03-21T13:13:47;13.50;99.90
34492;DHT22;20737;49.908;8.126;2023-03-21T13:16:20;13.50;99.90
34492;DHT22;20737;49.908;8.126;2023-03-21T13:18:56;13.50;99.90
34492;DHT22;20737;49.908;8.126;2023-03-21T13:21:42;13.30;99.90
34492;DHT22;20737;49.908;8.126;2023-03-21T13:24:27;13.40;99.90
34492;DHT22;20737;49.908;8.126;2023-03-21T13:27:03;13.50;99.90
34492;DHT22;20737;49.908;8.126;2023-03-21T13:29:33;13.30;99.90
34492;DHT22;20737;49.908;8.126;2023-03-21T13:32:09;13.20;99.90
34492;DHT22;20737;49.908;8.126;2023-03-21T13:34:42;13.20;99.90
34492;DHT22;20737;49.908;8.126;2023-03-21T13:37:14;13.10;99.90
34492;DHT22;20737;49.908;8.126;2023-03-21T13:39:45;13.10;99.90
34492;DHT22;20737;49.908;8.126;2023-03-21T13:42:21;13.10;99.90
34492;DHT22;20737;49.908;8.126;2023-03-21T13:44:52;13.00;99.90
34492;DHT22;20737;49.908;8.126;2023-03-21T13:50:29;13.10;99.90
34492;DHT22;20737;49.908;8.126;2023-03-21T13:53:28;13.00;99.90
34492;DHT22;20737;49.908;8.126;2023-03-21T13:56:22;13.10;99.90
34492;DHT22;20737;49.908;8.126;2023-03-21T13:59:00;13.10;99.90
34492;DHT22;20737;49.908;8.126;2023-03-21T14:01:35;13.20;99.90
34492;DHT22;20737;49.908;8.126;2023-03-21T14:04:10;13.00;99.90
34492;DHT22;20737;49.908;8.126;2023-03-21T14:06:42;13.10;99.90
34492;DHT22;20737;49.908;8.126;2023-03-21T14:09:17;13.10;99.90
34492;DHT22;20737;49.908;8.126;2023-03-21T14:11:46;12.90;99.90
34492;DHT22;20737;49.908;8.126;2023-03-21T14:14:14;13.20;99.90
34492;DHT22;20737;49.908;8.126;2023-03-21T14:16:41;13.20;99.90
34492;DHT22;20737;49.908;8.126;2023-03-21T14:19:10;13.30;99.90
34492;DHT22;20737;49.908;8.126;2023-03-21T14:21:37;13.60;99.90
34492;DHT22;20737;49.908;8.126;2023-03-21T14:24:13;13.70;99.90
34492;DHT22;20737;49.908;8.126;2023-03-21T14:26:42;13.70;99.90
34492;DHT22;20737;49.908;8.126;2023-03-21T14:29:16;13.70;99.90
34492;DHT22;20737;49.908;8.126;2023-03-21T14:31:48;13.60;99.90
34492;DHT22;20737;49.908;8.126;2023-03-21T14:34:17;13.50;99.90
34492;DHT22;20737;49.908;8.126;2023-03-21T14:36:44;13.30;99.90
34492;DHT22;20737;49.908;8.126;2023-03-21T14:39:13;13.40;99.90
34492;DHT22;20737;49.908;8.126;2023-03-21T14:41:46;13.30;99.90
34492;DHT22;20737;49.908;8.126;2023-03-21T14:44:20;13.30;99.90
34492;DHT22;20737;49.908;8.126;2023-03-21T14:46:51;13.40;99.90
34492;DHT22;20737;49.908;8.126;2023-03-21T14:49:25;13.40;99.90
34492;DHT22;20737;49.908;8.126;2023-03-21T14:51:56;13.40;99.90
34492;DHT22;20737;49.908;8.126;2023-03-21T14:54:24;13.40;99.90
34492;DHT22;20737;49.908;8.126;2023-03-21T14:56:56;13.50;99.90
34492;DHT22;20737;49.908;8.126;2023-03-21T14:59:29;13.40;99.90
34492;DHT22;20737;49.908;8.126;2023-03-21T15:02:02;13.40;99.90
34492;DHT22;20737;49.908;8.126;2023-03-21T15:04:31;13.30;99.90
34492;DHT22;20737;49.908;8.126;2023-03-21T15:07:00;13.20;99.90
34492;DHT22;20737;49.908;8.126;2023-03-21T15:09:31;13.20;99.90
34492;DHT22;20737;49.908;8.126;2023-03-21T15:11:59;13.20;99.90
34492;DHT22;20737;49.908;8.126;2023-03-21T15:14:31;13.10;99.90
34492;DHT22;20737;49.908;8.126;2023-03-21T15:17:00;13.10;99.90
34492;DHT22;20737;49.908;8.126;2023-03-21T15:19:33;13.00;99.90
34492;DHT22;20737;49.908;8.126;2023-03-21T15:22:06;13.00;99.90
34492;DHT22;20737;49.908;8.126;2023-03-21T15:24:37;13.20;99.90
34492;DHT22;20737;49.908;8.126;2023-03-21T15:27:07;13.20;99.90
34492;DHT22;20737;49.908;8.126;2023-03-21T15:29:35;13.30;99.90
34492;DHT22;20737;49.908;8.126;2023-03-21T15:32:10;13.20;99.90
34492;DHT22;20737;49.908;8.126;2023-03-21T15:34:38;13.20;99.90
34492;DHT22;20737;49.908;8.126;2023-03-21T15:37:14;13.20;99.90
34492;DHT22;20737;49.908;8.126;2023-03-21T15:39:42;13.30;99.90
34492;DHT22;20737;49.908;8.126;2023-03-21T15:42:27;13.40;99.90
34492;DHT22;20737;49.908;8.126;2023-03-21T15:44:57;13.20;99.90
34492;DHT22;20737;49.908;8.126;2023-03-21T15:47:47;13.10;99.90
34492;DHT22;20737;49.908;8.126;2023-03-21T15:50:24;13.00;99.90
34492;DHT22;20737;49.908;8.126;2023-03-21T15:52:52;13.10;99.90
34492;DHT22;20737;49.908;8.126;2023-03-21T15:55:24;13.10;99.90
34492;DHT22;20737;49.908;8.126;2023-03-21T15:57:58;12.90;99.90
34492;DHT22;20737;49.908;8.126;2023-03-21T16:00:37;12.90;99.90
34492;DHT22;20737;49.908;8.126;2023-03-21T16:03:09;12.80;99.90
34492;DHT22;20737;49.908;8.126;2023-03-21T16:05:41;12.80;99.90
34492;DHT22;20737;49.908;8.126;2023-03-21T16:08:18;12.60;99.90
34492;DHT22;20737;49.908;8.126;2023-03-21T16:10:45;12.60;99.90